createdAt,value
2024-04-23T00:00:29.456Z,9.77
2024-04-23T00:02:56.233Z,9.00
2024-04-23T00:05:22.971Z,9.30
2024-04-23T00:07:49.718Z,8.80
2024-04-23T00:10:16.527Z,9.10
2024-04-23T00:12:43.194Z,8.27
2024-04-23T00:15:09.840Z,8.30
2024-04-23T00:17:36.540Z,8.02
2024-04-23T00:20:03.604Z,7.93
2024-04-23T00:22:30.331Z,8.15
2024-04-23T00:24:57.204Z,7.47
2024-04-23T00:27:23.856Z,7.60
2024-04-23T00:29:50.481Z,7.78
2024-04-23T00:32:17.226Z,7.55
2024-04-23T00:34:43.991Z,6.95
2024-04-23T00:37:29.757Z,7.88
2024-04-23T00:39:56.397Z,6.90
2024-04-23T00:42:23.122Z,7.53
2024-04-23T00:44:58.460Z,7.38
2024-04-23T00:47:25.793Z,7.40
2024-04-23T00:49:52.962Z,7.70
2024-04-23T00:52:21.108Z,7.87
2024-04-23T00:54:50.112Z,8.25
2024-04-23T00:57:17.267Z,8.27
2024-04-23T01:18:56.538Z,6.27
2024-04-23T01:21:30.463Z,6.85
2024-04-23T01:24:04.584Z,6.43
2024-04-23T01:26:31.843Z,6.47
2024-04-23T01:28:59.035Z,7.22
2024-04-23T01:31:26.934Z,6.97
2024-04-23T01:33:55.935Z,8.35
2024-04-23T01:36:23.710Z,8.20
2024-04-23T01:38:51.266Z,7.25
2024-04-23T01:41:18.193Z,8.02
2024-04-23T01:43:45.804Z,7.37
2024-04-23T01:46:12.940Z,7.35
2024-04-23T01:48:39.858Z,6.90
2024-04-23T01:51:06.788Z,7.00
2024-04-23T01:53:33.403Z,6.80
2024-04-23T01:56:00.080Z,7.03
2024-04-23T01:58:26.920Z,6.72
2024-04-23T02:00:55.350Z,5.75
2024-04-23T02:03:23.031Z,5.38
2024-04-23T02:05:51.090Z,4.97
2024-04-23T02:08:17.909Z,6.27
2024-04-23T02:10:45.874Z,5.82
2024-04-23T02:13:12.623Z,5.30
2024-04-23T02:15:39.249Z,5.78
2024-04-23T02:18:06.262Z,5.07
2024-04-23T02:20:33.028Z,4.90
2024-04-23T02:22:59.671Z,5.00
2024-04-23T02:25:27.328Z,4.88
2024-04-23T02:27:54.199Z,4.85
2024-04-23T02:30:20.865Z,5.00
2024-04-23T02:32:47.759Z,4.57
2024-04-23T02:35:14.506Z,4.85
2024-04-23T02:37:41.259Z,5.35
2024-04-23T02:40:08.254Z,4.88
2024-04-23T02:42:34.923Z,4.60
2024-04-23T02:45:01.617Z,4.17
2024-04-23T02:47:28.294Z,4.90
2024-04-23T02:49:55.044Z,4.80
2024-04-23T02:52:21.737Z,5.05
2024-04-23T02:54:48.364Z,4.93
2024-04-23T02:57:15.020Z,4.93
2024-04-23T02:59:41.653Z,5.47
2024-04-23T03:02:11.407Z,4.78
2024-04-23T03:04:38.395Z,5.28
2024-04-23T03:07:05.111Z,5.18
2024-04-23T03:09:31.898Z,4.53
2024-04-23T03:11:58.540Z,5.68
2024-04-23T03:14:25.186Z,4.90
2024-04-23T03:16:52.162Z,4.80
2024-04-23T03:19:18.853Z,5.28
2024-04-23T03:22:05.886Z,5.53
2024-04-23T03:24:35.448Z,4.70
2024-04-23T03:27:02.493Z,4.60
2024-04-23T03:29:29.122Z,5.28
2024-04-23T03:32:03.519Z,5.25
2024-04-23T03:34:31.351Z,5.73
2024-04-23T03:36:58.698Z,5.35
2024-04-23T03:39:25.807Z,6.32
2024-04-23T03:41:59.767Z,6.10
2024-04-23T03:44:27.657Z,5.30
2024-04-23T03:46:57.260Z,5.23
2024-04-23T03:49:24.185Z,5.88
2024-04-23T03:51:50.935Z,5.80
2024-04-23T03:54:17.575Z,5.15
2024-04-23T03:56:44.242Z,5.45
2024-04-23T03:59:10.859Z,5.90
2024-04-23T04:01:37.647Z,5.85
2024-04-23T04:04:23.246Z,6.22
2024-04-23T04:06:49.957Z,6.10
2024-04-23T04:09:16.619Z,5.95
2024-04-23T04:11:43.472Z,6.20
2024-04-23T04:14:10.199Z,5.90
2024-04-23T04:16:36.968Z,6.38
2024-04-23T04:19:04.938Z,5.82
2024-04-23T04:21:31.629Z,6.20
2024-04-23T04:23:58.261Z,6.13
2024-04-23T04:26:24.894Z,6.30
2024-04-23T04:28:51.577Z,6.30
2024-04-23T04:31:18.211Z,6.75
2024-04-23T04:33:44.910Z,6.47
2024-04-23T04:36:11.605Z,6.00
2024-04-23T04:38:38.275Z,7.28
2024-04-23T04:41:05.197Z,6.68
2024-04-23T04:43:31.949Z,6.55
2024-04-23T04:45:58.786Z,7.55
2024-04-23T04:48:25.526Z,7.20
2024-04-23T04:50:52.240Z,7.32
2024-04-23T04:53:18.889Z,7.13
2024-04-23T04:55:45.555Z,7.18
2024-04-23T04:58:12.199Z,7.43
2024-04-23T05:00:41.120Z,7.97
2024-04-23T05:03:08.957Z,8.27
2024-04-23T05:05:35.746Z,8.82
2024-04-23T05:08:02.505Z,5.65
2024-04-23T05:10:29.373Z,7.90
2024-04-23T05:12:56.041Z,8.10
2024-04-23T05:15:22.705Z,7.25
2024-04-23T05:17:49.346Z,7.45
2024-04-23T05:20:16.120Z,7.22
2024-04-23T05:22:42.936Z,6.75
2024-04-23T05:25:09.811Z,6.20
2024-04-23T05:27:36.495Z,7.28
2024-04-23T05:30:03.632Z,6.20
2024-04-23T05:32:48.772Z,6.18
2024-04-23T05:35:15.662Z,6.85
2024-04-23T05:37:42.543Z,6.40
2024-04-23T05:40:09.827Z,6.28
2024-04-23T05:42:36.519Z,6.10
2024-04-23T05:45:03.287Z,7.13
2024-04-23T05:47:30.231Z,5.80
2024-04-23T05:50:34.475Z,5.90
2024-04-23T05:53:38.552Z,5.90
2024-04-23T05:56:05.295Z,6.18
2024-04-23T05:58:31.955Z,5.88
2024-04-23T06:01:00.167Z,6.22
2024-04-23T06:03:27.055Z,6.53
2024-04-23T06:05:53.797Z,5.80
2024-04-23T06:08:20.557Z,5.25
2024-04-23T06:10:47.438Z,5.80
2024-04-23T06:13:14.206Z,4.78
2024-04-23T06:15:40.830Z,4.90
2024-04-23T06:18:07.651Z,4.90
2024-04-23T06:20:34.583Z,4.72
2024-04-23T06:23:01.309Z,5.10
2024-04-23T06:25:28.029Z,4.20
2024-04-23T06:27:54.689Z,4.10
2024-04-23T06:30:21.484Z,4.70
2024-04-23T06:32:49.156Z,3.92
2024-04-23T06:35:17.120Z,4.18
2024-04-23T06:37:44.203Z,4.15
2024-04-23T06:40:12.068Z,4.03
2024-04-23T06:42:39.697Z,4.30
2024-04-23T06:45:06.991Z,3.83
2024-04-23T06:47:35.173Z,3.55
2024-04-23T06:50:02.417Z,3.90
2024-04-23T06:52:29.318Z,3.47
2024-04-23T06:54:56.138Z,3.67
2024-04-23T06:57:22.904Z,4.20
2024-04-23T06:59:49.670Z,3.60
2024-04-23T07:02:16.578Z,3.25
2024-04-23T07:04:43.376Z,3.70
2024-04-23T07:07:10.185Z,3.10
2024-04-23T07:09:36.951Z,3.95
2024-04-23T07:12:03.869Z,3.67
2024-04-23T07:14:30.610Z,3.70
2024-04-23T07:16:57.436Z,3.17
2024-04-23T07:19:24.169Z,3.50
2024-04-23T07:21:50.843Z,3.28
2024-04-23T07:24:17.527Z,2.90
2024-04-23T07:26:44.193Z,3.30
2024-04-23T07:29:11.000Z,3.63
2024-04-23T07:31:37.908Z,3.25
2024-04-23T07:34:04.859Z,3.20
2024-04-23T07:36:31.753Z,3.00
2024-04-23T07:38:58.520Z,2.92
2024-04-23T07:41:25.183Z,2.50
2024-04-23T07:43:52.036Z,2.50
2024-04-23T07:46:18.752Z,2.40
2024-04-23T07:48:45.570Z,2.40
2024-04-23T07:51:12.266Z,2.25
2024-04-23T07:53:38.943Z,2.60
2024-04-23T07:56:06.029Z,2.55
2024-04-23T07:58:32.845Z,2.28
2024-04-23T08:00:59.888Z,2.70
2024-04-23T08:03:26.673Z,2.30
2024-04-23T08:05:56.666Z,2.30
2024-04-23T08:08:23.450Z,2.50
2024-04-23T08:10:50.581Z,2.50
2024-04-23T08:13:17.409Z,2.50
2024-04-23T08:15:44.438Z,2.20
2024-04-23T08:18:11.900Z,2.30
2024-04-23T08:20:42.025Z,1.95
2024-04-23T08:23:09.994Z,2.60
2024-04-23T08:25:36.890Z,2.45
2024-04-23T08:28:03.664Z,2.38
2024-04-23T08:30:30.402Z,2.30
2024-04-23T08:32:57.401Z,2.70
2024-04-23T08:35:24.161Z,2.30
2024-04-23T08:37:50.997Z,2.67
2024-04-23T08:40:17.901Z,3.05
2024-04-23T08:42:47.399Z,2.50
2024-04-23T08:45:15.734Z,2.70
2024-04-23T08:47:43.517Z,2.42
2024-04-23T08:50:10.962Z,2.80
2024-04-23T08:52:38.854Z,2.80
2024-04-23T08:55:06.911Z,2.60
2024-04-23T08:57:35.728Z,2.50
2024-04-23T09:00:04.732Z,2.60
2024-04-23T09:02:36.884Z,2.85
2024-04-23T09:05:04.155Z,2.88
2024-04-23T09:07:34.815Z,2.70
2024-04-23T09:10:05.165Z,3.10
2024-04-23T09:12:32.582Z,2.17
2024-04-23T09:15:00.729Z,2.70
2024-04-23T09:17:28.827Z,2.72
2024-04-23T09:19:55.985Z,2.27
2024-04-23T09:22:22.810Z,2.20
2024-04-23T09:24:49.580Z,2.63
2024-04-23T09:27:16.392Z,2.50
2024-04-23T09:29:43.098Z,2.78
2024-04-23T09:32:10.562Z,2.30
2024-04-23T09:34:39.560Z,2.42
2024-04-23T09:37:19.321Z,2.20
2024-04-23T09:39:47.503Z,2.58
2024-04-23T09:42:35.484Z,2.72
2024-04-23T09:45:05.982Z,2.30
2024-04-23T09:47:32.755Z,2.10
2024-04-23T09:49:59.520Z,2.38
2024-04-23T09:52:33.918Z,2.58
2024-04-23T09:55:01.189Z,2.60
2024-04-23T09:57:27.945Z,2.40
2024-04-23T09:59:55.004Z,2.40
2024-04-23T10:02:28.769Z,2.50
2024-04-23T10:05:20.627Z,2.72
2024-04-23T10:07:52.901Z,2.67
2024-04-23T10:10:24.728Z,2.70
2024-04-23T10:12:54.481Z,2.80
2024-04-23T10:15:35.607Z,2.65
2024-04-23T10:18:09.814Z,2.30
2024-04-23T10:20:45.718Z,2.30
2024-04-23T10:23:19.145Z,2.73
2024-04-23T10:25:47.867Z,2.25
2024-04-23T10:28:15.662Z,2.70
2024-04-23T10:30:43.041Z,2.30
2024-04-23T10:33:11.820Z,2.60
2024-04-23T10:35:40.301Z,2.30
2024-04-23T10:38:08.774Z,2.22
2024-04-23T10:40:43.629Z,2.08
2024-04-23T10:43:18.109Z,2.00
2024-04-23T10:45:44.949Z,2.05
2024-04-23T10:48:12.030Z,2.20
2024-04-23T10:50:39.003Z,2.50
2024-04-23T10:53:06.309Z,2.80
2024-04-23T10:55:33.255Z,2.03
2024-04-23T10:57:59.945Z,2.33
2024-04-23T11:00:37.309Z,2.30
2024-04-23T11:03:31.762Z,2.20
2024-04-23T11:05:58.820Z,2.30
2024-04-23T11:08:27.826Z,1.73
2024-04-23T11:11:08.316Z,2.20
2024-04-23T11:13:40.037Z,1.93
2024-04-23T11:16:23.220Z,2.10
2024-04-23T11:18:54.422Z,1.85
2024-04-23T11:21:28.055Z,2.17
2024-04-23T11:23:55.380Z,2.20
2024-04-23T11:26:25.234Z,2.20
2024-04-23T11:28:52.296Z,2.38
2024-04-23T11:31:20.531Z,2.22
2024-04-23T11:33:49.849Z,2.28
2024-04-23T11:36:25.719Z,2.10
2024-04-23T11:38:55.664Z,2.20
2024-04-23T11:41:22.500Z,2.30
2024-04-23T11:43:49.370Z,2.08
2024-04-23T11:46:17.027Z,1.90
2024-04-23T11:48:44.658Z,2.25
2024-04-23T11:51:14.921Z,2.10
2024-04-23T11:53:41.942Z,2.30
2024-04-23T11:56:09.339Z,2.60
2024-04-23T11:58:41.495Z,1.90
2024-04-23T12:01:09.831Z,2.50
2024-04-23T12:03:37.079Z,2.43
2024-04-23T12:06:04.966Z,1.90
2024-04-23T12:08:32.010Z,2.40
2024-04-23T12:11:00.049Z,2.20
2024-04-23T12:13:28.772Z,2.50
2024-04-23T12:15:55.760Z,2.10
2024-04-23T12:18:22.592Z,1.95
2024-04-23T12:21:49.066Z,2.20
2024-04-23T12:24:21.200Z,2.10
2024-04-23T12:26:49.423Z,2.00
2024-04-23T12:29:16.242Z,2.10
2024-04-23T12:31:43.081Z,1.98
2024-04-23T12:34:09.884Z,2.10
2024-04-23T12:36:38.124Z,2.20
2024-04-23T12:39:12.169Z,2.30
2024-04-23T12:41:39.735Z,2.10
2024-04-23T12:44:16.448Z,1.80
2024-04-23T12:46:43.901Z,1.90
2024-04-23T12:49:11.010Z,2.00
2024-04-23T12:51:37.873Z,1.90
2024-04-23T12:54:10.194Z,2.00
2024-04-23T12:56:37.331Z,1.65
2024-04-23T12:59:06.995Z,1.92
2024-04-23T13:01:42.066Z,1.65
2024-04-23T13:04:12.411Z,1.63
2024-04-23T13:06:39.453Z,1.90
2024-04-23T13:09:06.684Z,1.90
2024-04-23T13:11:33.678Z,1.90
2024-04-23T13:14:00.747Z,1.88
2024-04-23T13:16:39.044Z,1.90
2024-04-23T13:19:13.024Z,1.63
2024-04-23T13:21:39.910Z,1.80
2024-04-23T13:24:06.755Z,2.00
2024-04-23T13:26:33.505Z,1.90
2024-04-23T13:29:01.220Z,1.90
2024-04-23T13:31:27.985Z,2.00
2024-04-23T13:33:54.763Z,1.73
2024-04-23T13:36:21.579Z,1.90
2024-04-23T13:38:48.300Z,1.88
2024-04-23T13:41:16.273Z,1.85
2024-04-23T13:43:43.193Z,1.97
2024-04-23T13:46:11.314Z,1.90
2024-04-23T13:48:38.123Z,1.85
2024-04-23T13:51:07.094Z,1.80
2024-04-23T13:53:34.616Z,2.10
2024-04-23T13:56:07.882Z,1.90
2024-04-23T13:58:34.892Z,1.90
2024-04-23T14:01:11.069Z,2.10
2024-04-23T14:03:38.655Z,1.90
2024-04-23T14:06:06.590Z,2.00
2024-04-23T14:08:34.626Z,1.70
2024-04-23T14:11:05.471Z,1.95
2024-04-23T14:13:35.964Z,1.90
2024-04-23T14:16:13.243Z,1.77
2024-04-23T14:18:42.099Z,1.70
2024-04-23T14:21:08.961Z,2.00
2024-04-23T14:23:36.307Z,1.80
2024-04-23T14:26:03.457Z,1.98
2024-04-23T14:28:34.716Z,1.75
2024-04-23T14:31:05.081Z,2.00
2024-04-23T14:33:32.387Z,1.97
2024-04-23T14:36:05.689Z,2.13
2024-04-23T14:38:32.734Z,1.92
2024-04-23T14:41:00.200Z,2.00
2024-04-23T14:43:27.280Z,2.00
2024-04-23T14:45:54.170Z,1.90
2024-04-23T14:48:20.983Z,2.00
2024-04-23T14:50:49.206Z,1.90
2024-04-23T14:53:19.641Z,1.83
2024-04-23T14:55:57.701Z,1.92
2024-04-23T14:58:24.595Z,1.93
2024-04-23T15:00:51.325Z,1.70
2024-04-23T15:03:19.130Z,1.90
2024-04-23T15:05:46.108Z,1.65
2024-04-23T15:08:13.613Z,1.80
2024-04-23T15:10:48.008Z,2.10
2024-04-23T15:13:15.763Z,2.10
2024-04-23T15:15:42.448Z,1.73
2024-04-23T15:18:09.227Z,2.08
2024-04-23T15:20:42.522Z,2.20
2024-04-23T15:23:09.398Z,2.00
2024-04-23T15:25:36.187Z,2.00
2024-04-23T15:28:02.940Z,1.90
2024-04-23T15:30:29.830Z,1.95
2024-04-23T15:32:57.295Z,2.20
2024-04-23T15:35:24.840Z,1.87
2024-04-23T15:37:51.842Z,1.85
2024-04-23T15:40:18.616Z,2.40
2024-04-23T15:42:45.314Z,2.03
2024-04-23T15:45:14.116Z,2.00
2024-04-23T15:47:41.354Z,2.33
2024-04-23T15:50:08.919Z,1.90
2024-04-23T15:52:35.809Z,2.53
2024-04-23T15:55:02.459Z,2.10
2024-04-23T15:57:29.241Z,2.20
2024-04-23T15:59:55.915Z,2.00
2024-04-23T16:02:23.170Z,1.80
2024-04-23T16:04:50.079Z,2.13
2024-04-23T16:07:16.926Z,1.95
2024-04-23T16:09:43.634Z,2.30
2024-04-23T16:12:10.686Z,2.13
2024-04-23T16:14:37.626Z,2.00
2024-04-23T16:17:04.618Z,2.10
2024-04-23T16:19:31.373Z,1.60
2024-04-23T16:21:58.119Z,1.92
2024-04-23T16:24:24.848Z,2.00
2024-04-23T16:26:51.811Z,2.17
2024-04-23T16:29:18.789Z,2.10
2024-04-23T16:31:45.678Z,1.98
2024-04-23T16:34:13.043Z,2.00
2024-04-23T16:36:39.806Z,2.10
2024-04-23T16:39:07.285Z,2.10
2024-04-23T16:41:34.938Z,2.35
2024-04-23T16:44:01.650Z,2.08
2024-04-23T16:46:29.064Z,2.38
2024-04-23T16:48:55.739Z,2.20
2024-04-23T16:51:22.506Z,2.40
2024-04-23T16:53:49.275Z,2.30
2024-04-23T16:56:19.020Z,2.50
2024-04-23T16:58:45.833Z,2.30
2024-04-23T17:01:12.605Z,1.87
2024-04-23T17:03:40.022Z,1.98
2024-04-23T17:06:25.291Z,1.80
2024-04-23T17:08:52.004Z,1.65
2024-04-23T17:11:18.792Z,1.70
2024-04-23T17:13:45.696Z,2.13
2024-04-23T17:16:16.394Z,1.80
2024-04-23T17:18:43.430Z,1.77
2024-04-23T17:21:17.209Z,2.10
2024-04-23T17:23:44.683Z,2.05
2024-04-23T17:26:12.215Z,2.00
2024-04-23T17:28:39.042Z,2.30
2024-04-23T17:31:09.165Z,5.68
2024-04-23T17:33:36.162Z,2.25
2024-04-23T17:36:03.151Z,2.20
2024-04-23T17:38:29.858Z,1.80
2024-04-23T17:40:56.667Z,1.77
2024-04-23T17:43:23.793Z,1.75
2024-04-23T17:45:50.487Z,1.73
2024-04-23T17:48:17.337Z,2.10
2024-04-23T17:50:44.106Z,1.80
2024-04-23T17:53:10.920Z,1.70
2024-04-23T17:55:37.652Z,2.00
2024-04-23T17:58:04.584Z,2.22
2024-04-23T18:00:31.458Z,2.10
2024-04-23T18:02:58.300Z,2.17
2024-04-23T18:05:25.069Z,1.98
2024-04-23T18:07:52.297Z,1.77
2024-04-23T18:10:19.188Z,2.15
2024-04-23T18:12:47.158Z,2.10
2024-04-23T18:15:14.033Z,2.10
2024-04-23T18:17:42.463Z,2.15
2024-04-23T18:20:09.713Z,2.45
2024-04-23T18:22:37.260Z,2.10
2024-04-23T18:25:04.562Z,2.08
2024-04-23T18:27:31.437Z,2.10
2024-04-23T18:29:58.130Z,2.00
2024-04-23T18:32:25.224Z,2.40
2024-04-23T18:34:52.078Z,2.40
2024-04-23T18:37:18.755Z,2.33
2024-04-23T18:39:45.544Z,2.90
2024-04-23T18:42:13.520Z,2.67
2024-04-23T18:44:40.623Z,2.95
2024-04-23T18:47:07.424Z,3.40
2024-04-23T18:49:34.175Z,2.95
2024-04-23T18:52:00.877Z,3.23
2024-04-23T18:54:27.658Z,2.97
2024-04-23T18:56:55.488Z,3.17
2024-04-23T18:59:22.268Z,2.30
2024-04-23T19:01:49.248Z,2.10
2024-04-23T19:04:16.079Z,2.40
2024-04-23T19:06:42.821Z,2.42
2024-04-23T19:09:09.592Z,2.30
2024-04-23T19:11:36.473Z,2.20
2024-04-23T19:14:11.257Z,2.70
2024-04-23T19:16:44.257Z,3.17
2024-04-23T19:19:11.462Z,2.90
2024-04-23T19:21:38.399Z,2.45
2024-04-23T19:24:05.950Z,3.08
2024-04-23T19:26:32.671Z,2.55
2024-04-23T19:28:59.477Z,2.10
2024-04-23T19:31:26.327Z,2.38
2024-04-23T19:33:53.084Z,1.88
2024-04-23T19:36:20.200Z,2.60
2024-04-23T19:38:46.942Z,2.72
2024-04-23T19:41:18.253Z,2.40
2024-04-23T19:43:52.410Z,2.70
2024-04-23T19:46:21.665Z,2.60
2024-04-23T19:48:50.375Z,2.60
2024-04-23T19:51:20.910Z,2.70
2024-04-23T19:53:51.063Z,2.70
2024-04-23T19:56:35.420Z,3.17
2024-04-23T19:59:04.243Z,2.90
2024-04-23T20:01:39.266Z,2.97
2024-04-23T20:04:06.506Z,3.08
2024-04-23T20:06:34.016Z,3.40
2024-04-23T20:09:02.119Z,3.67
2024-04-23T20:11:28.971Z,3.60
2024-04-23T20:13:55.834Z,3.65
2024-04-23T20:16:22.609Z,3.72
2024-04-23T20:18:52.515Z,4.07
2024-04-23T20:21:19.598Z,4.72
2024-04-23T20:23:51.127Z,5.00
2024-04-23T20:26:17.942Z,4.47
2024-04-23T20:28:45.589Z,4.60
2024-04-23T20:31:13.107Z,5.23
2024-04-23T20:33:42.219Z,4.63
2024-04-23T20:36:09.424Z,5.25
2024-04-23T20:38:36.076Z,5.10
2024-04-23T20:41:10.735Z,7.18
2024-04-23T20:43:37.779Z,6.20
2024-04-23T20:46:07.945Z,5.97
2024-04-23T20:48:35.318Z,6.07
2024-04-23T20:51:02.250Z,6.28
2024-04-23T20:53:29.181Z,6.07
2024-04-23T20:55:55.907Z,6.30
2024-04-23T20:58:22.620Z,6.50
2024-04-23T21:00:49.882Z,6.22
2024-04-23T21:03:16.798Z,6.00
2024-04-23T21:05:43.609Z,6.95
2024-04-23T21:08:12.191Z,6.57
2024-04-23T21:10:39.753Z,6.78
2024-04-23T21:13:06.566Z,7.25
2024-04-23T21:15:33.697Z,7.60
2024-04-23T21:18:00.907Z,7.95
2024-04-23T21:20:28.254Z,7.70
2024-04-23T21:22:55.264Z,7.85
2024-04-23T21:25:22.095Z,7.47
2024-04-23T21:27:48.923Z,7.80
2024-04-23T21:30:15.736Z,7.97
2024-04-23T21:32:42.610Z,7.70
2024-04-23T21:35:09.592Z,7.95
2024-04-23T21:37:36.356Z,8.73
2024-04-23T21:40:03.268Z,7.05
2024-04-23T21:42:35.829Z,7.50
2024-04-23T21:45:08.310Z,7.40
2024-04-23T21:47:35.504Z,7.10
2024-04-23T21:50:02.636Z,6.85
2024-04-23T21:52:39.178Z,7.10
2024-04-23T21:55:08.843Z,6.00
2024-04-23T21:57:35.787Z,5.97
2024-04-23T22:00:02.652Z,6.00
2024-04-23T22:02:29.516Z,6.63
2024-04-23T22:04:56.291Z,5.70
2024-04-23T22:07:23.075Z,6.05
2024-04-23T22:09:49.745Z,5.67
2024-04-23T22:12:16.515Z,6.70
2024-04-23T22:14:43.191Z,7.50
2024-04-23T22:17:11.734Z,7.75
2024-04-23T22:19:38.492Z,8.52
2024-04-23T22:22:05.418Z,8.53
2024-04-23T22:24:32.179Z,9.02
2024-04-23T22:26:58.860Z,9.40
2024-04-23T22:29:25.648Z,10.23
2024-04-23T22:31:52.444Z,10.20
2024-04-23T22:34:19.997Z,10.60
2024-04-23T22:36:46.696Z,9.02
2024-04-23T22:39:13.401Z,8.52
2024-04-23T22:41:40.222Z,8.20
2024-04-23T22:44:07.031Z,8.45
2024-04-23T22:46:33.809Z,7.90
2024-04-23T22:49:03.306Z,8.13
2024-04-23T22:51:30.090Z,7.40
2024-04-23T22:53:56.816Z,7.20
2024-04-23T22:56:23.530Z,6.72
2024-04-23T22:58:50.624Z,7.00
2024-04-23T23:01:17.432Z,6.63
2024-04-23T23:03:44.211Z,7.10
2024-04-23T23:06:11.092Z,5.93
2024-04-23T23:08:37.818Z,6.80
2024-04-23T23:11:04.721Z,6.40
2024-04-23T23:13:31.547Z,5.88
2024-04-23T23:15:58.394Z,6.22
2024-04-23T23:18:25.193Z,5.72
2024-04-23T23:20:52.003Z,5.97
2024-04-23T23:23:18.741Z,5.70
2024-04-23T23:25:45.510Z,5.88
2024-04-23T23:28:12.259Z,6.45
2024-04-23T23:30:38.958Z,6.32
2024-04-23T23:33:05.865Z,5.97
2024-04-23T23:35:32.623Z,5.53
2024-04-23T23:37:59.570Z,5.25
2024-04-23T23:40:26.896Z,5.25
2024-04-23T23:42:58.320Z,5.30
2024-04-23T23:45:28.283Z,5.15
2024-04-23T23:47:56.311Z,4.57
2024-04-23T23:50:23.314Z,4.47
2024-04-23T23:52:50.145Z,5.25
2024-04-23T23:55:16.853Z,5.13
2024-04-23T23:57:43.899Z,5.22
